sensor_id;sensor_type;location;lat;lon;timestamp;P1;durP1;ratioP1;P2;durP2;ratioP2
69906;SDS011;57190;47.918;8.112;2023-02-28T00:02:07;3.47;;;3.27;;
69906;SDS011;57190;47.918;8.112;2023-02-28T00:04:32;3.70;;;2.97;;
69906;SDS011;57190;47.918;8.112;2023-02-28T00:06:58;3.60;;;3.30;;
69906;SDS011;57190;47.918;8.112;2023-02-28T00:09:23;3.50;;;3.20;;
69906;SDS011;57190;47.918;8.112;2023-02-28T00:11:49;3.50;;;3.20;;
69906;SDS011;57190;47.918;8.112;2023-02-28T00:14:14;3.40;;;3.10;;
69906;SDS011;57190;47.918;8.112;2023-02-28T00:16:40;3.90;;;3.47;;
69906;SDS011;57190;47.918;8.112;2023-02-28T00:19:06;3.33;;;3.07;;
69906;SDS011;57190;47.918;8.112;2023-02-28T00:21:31;3.27;;;2.63;;
69906;SDS011;57190;47.918;8.112;2023-02-28T00:23:57;3.80;;;3.60;;
69906;SDS011;57190;47.918;8.112;2023-02-28T00:26:22;3.93;;;3.63;;
69906;SDS011;57190;47.918;8.112;2023-02-28T00:28:48;3.80;;;3.40;;
69906;SDS011;57190;47.918;8.112;2023-02-28T00:31:14;3.43;;;3.17;;
69906;SDS011;57190;47.918;8.112;2023-02-28T00:33:39;3.57;;;3.27;;
69906;SDS011;57190;47.918;8.112;2023-02-28T00:36:06;4.27;;;3.30;;
69906;SDS011;57190;47.918;8.112;2023-02-28T00:38:34;3.70;;;3.40;;
69906;SDS011;57190;47.918;8.112;2023-02-28T00:41:00;3.50;;;3.30;;
69906;SDS011;57190;47.918;8.112;2023-02-28T00:43:29;3.40;;;3.10;;
69906;SDS011;57190;47.918;8.112;2023-02-28T00:45:56;3.57;;;3.27;;
69906;SDS011;57190;47.918;8.112;2023-02-28T00:48:21;3.73;;;3.43;;
69906;SDS011;57190;47.918;8.112;2023-02-28T00:50:50;3.80;;;3.53;;
69906;SDS011;57190;47.918;8.112;2023-02-28T00:53:15;3.73;;;3.43;;
69906;SDS011;57190;47.918;8.112;2023-02-28T00:55:41;3.70;;;3.40;;
69906;SDS011;57190;47.918;8.112;2023-02-28T00:58:07;3.77;;;3.47;;
69906;SDS011;57190;47.918;8.112;2023-02-28T01:00:32;3.50;;;3.30;;
69906;SDS011;57190;47.918;8.112;2023-02-28T01:02:58;4.03;;;3.63;;
69906;SDS011;57190;47.918;8.112;2023-02-28T01:05:23;4.40;;;3.97;;
69906;SDS011;57190;47.918;8.112;2023-02-28T01:07:49;3.70;;;3.40;;
69906;SDS011;57190;47.918;8.112;2023-02-28T01:10:15;3.70;;;3.23;;
69906;SDS011;57190;47.918;8.112;2023-02-28T01:12:40;4.80;;;3.67;;
69906;SDS011;57190;47.918;8.112;2023-02-28T01:15:06;3.90;;;3.60;;
69906;SDS011;57190;47.918;8.112;2023-02-28T01:17:32;3.70;;;3.40;;
69906;SDS011;57190;47.918;8.112;2023-02-28T01:19:58;3.90;;;3.60;;
69906;SDS011;57190;47.918;8.112;2023-02-28T01:22:23;3.60;;;3.40;;
69906;SDS011;57190;47.918;8.112;2023-02-28T01:24:49;4.03;;;3.70;;
69906;SDS011;57190;47.918;8.112;2023-02-28T01:27:14;3.43;;;3.17;;
69906;SDS011;57190;47.918;8.112;2023-02-28T01:29:40;3.60;;;3.30;;
69906;SDS011;57190;47.918;8.112;2023-02-28T01:32:06;3.50;;;3.30;;
69906;SDS011;57190;47.918;8.112;2023-02-28T01:34:31;3.27;;;3.00;;
69906;SDS011;57190;47.918;8.112;2023-02-28T01:36:57;4.13;;;3.83;;
69906;SDS011;57190;47.918;8.112;2023-02-28T01:39:24;4.70;;;3.70;;
69906;SDS011;57190;47.918;8.112;2023-02-28T01:41:50;4.43;;;3.30;;
69906;SDS011;57190;47.918;8.112;2023-02-28T01:47:19;3.70;;;3.40;;
69906;SDS011;57190;47.918;8.112;2023-02-28T01:49:45;3.37;;;3.07;;
69906;SDS011;57190;47.918;8.112;2023-02-28T01:52:11;3.30;;;3.10;;
69906;SDS011;57190;47.918;8.112;2023-02-28T01:54:43;4.10;;;3.80;;
69906;SDS011;57190;47.918;8.112;2023-02-28T01:57:16;3.83;;;3.53;;
69906;SDS011;57190;47.918;8.112;2023-02-28T01:59:56;3.30;;;3.00;;
69906;SDS011;57190;47.918;8.112;2023-02-28T02:02:24;3.27;;;3.07;;
69906;SDS011;57190;47.918;8.112;2023-02-28T02:05:07;3.60;;;3.30;;
69906;SDS011;57190;47.918;8.112;2023-02-28T02:07:36;3.47;;;3.27;;
69906;SDS011;57190;47.918;8.112;2023-02-28T02:10:17;3.57;;;3.37;;
69906;SDS011;57190;47.918;8.112;2023-02-28T02:12:56;3.23;;;2.80;;
69906;SDS011;57190;47.918;8.112;2023-02-28T02:30:08;3.50;;;3.20;;
69906;SDS011;57190;47.918;8.112;2023-02-28T02:35:55;3.90;;;3.43;;
69906;SDS011;57190;47.918;8.112;2023-02-28T02:38:33;3.40;;;3.20;;
69906;SDS011;57190;47.918;8.112;2023-02-28T02:46:45;3.50;;;3.20;;
69906;SDS011;57190;47.918;8.112;2023-02-28T02:49:21;3.53;;;3.27;;
69906;SDS011;57190;47.918;8.112;2023-02-28T02:51:51;3.33;;;3.00;;
69906;SDS011;57190;47.918;8.112;2023-02-28T02:56:48;3.13;;;2.93;;
69906;SDS011;57190;47.918;8.112;2023-02-28T02:59:17;3.20;;;3.00;;
69906;SDS011;57190;47.918;8.112;2023-02-28T03:01:48;3.63;;;3.33;;
69906;SDS011;57190;47.918;8.112;2023-02-28T03:04:18;3.23;;;3.03;;
69906;SDS011;57190;47.918;8.112;2023-02-28T03:06:46;3.30;;;3.10;;
69906;SDS011;57190;47.918;8.112;2023-02-28T03:09:12;3.20;;;2.97;;
69906;SDS011;57190;47.918;8.112;2023-02-28T03:11:38;3.30;;;3.10;;
69906;SDS011;57190;47.918;8.112;2023-02-28T03:17:20;3.77;;;3.47;;
69906;SDS011;57190;47.918;8.112;2023-02-28T03:31:20;3.60;;;3.30;;
69906;SDS011;57190;47.918;8.112;2023-02-28T03:37:19;3.80;;;3.50;;
69906;SDS011;57190;47.918;8.112;2023-02-28T03:39:43;4.07;;;3.77;;
69906;SDS011;57190;47.918;8.112;2023-02-28T03:42:14;3.53;;;3.00;;
69906;SDS011;57190;47.918;8.112;2023-02-28T03:44:45;3.80;;;3.50;;
69906;SDS011;57190;47.918;8.112;2023-02-28T03:47:24;3.90;;;3.60;;
69906;SDS011;57190;47.918;8.112;2023-02-28T03:52:21;3.73;;;3.43;;
69906;SDS011;57190;47.918;8.112;2023-02-28T03:54:52;3.27;;;3.07;;
69906;SDS011;57190;47.918;8.112;2023-02-28T03:57:27;3.63;;;3.33;;
69906;SDS011;57190;47.918;8.112;2023-02-28T04:00:46;3.50;;;3.30;;
69906;SDS011;57190;47.918;8.112;2023-02-28T04:03:08;3.53;;;3.23;;
69906;SDS011;57190;47.918;8.112;2023-02-28T04:05:39;3.57;;;3.37;;
69906;SDS011;57190;47.918;8.112;2023-02-28T04:08:17;4.07;;;3.77;;
69906;SDS011;57190;47.918;8.112;2023-02-28T04:10:43;3.70;;;3.40;;
69906;SDS011;57190;47.918;8.112;2023-02-28T04:13:13;3.53;;;3.27;;
69906;SDS011;57190;47.918;8.112;2023-02-28T04:15:39;3.10;;;2.90;;
69906;SDS011;57190;47.918;8.112;2023-02-28T04:18:04;3.77;;;3.47;;
69906;SDS011;57190;47.918;8.112;2023-02-28T04:20:31;3.90;;;3.60;;
69906;SDS011;57190;47.918;8.112;2023-02-28T04:22:56;3.80;;;3.50;;
69906;SDS011;57190;47.918;8.112;2023-02-28T04:25:22;3.50;;;3.30;;
69906;SDS011;57190;47.918;8.112;2023-02-28T04:27:47;3.67;;;3.37;;
69906;SDS011;57190;47.918;8.112;2023-02-28T04:30:13;3.87;;;3.47;;
69906;SDS011;57190;47.918;8.112;2023-02-28T04:32:38;3.47;;;3.27;;
69906;SDS011;57190;47.918;8.112;2023-02-28T04:35:04;3.53;;;3.23;;
69906;SDS011;57190;47.918;8.112;2023-02-28T04:37:30;4.23;;;3.93;;
69906;SDS011;57190;47.918;8.112;2023-02-28T04:40:00;3.53;;;3.30;;
69906;SDS011;57190;47.918;8.112;2023-02-28T04:42:26;3.87;;;3.57;;
69906;SDS011;57190;47.918;8.112;2023-02-28T04:44:52;3.60;;;3.30;;
69906;SDS011;57190;47.918;8.112;2023-02-28T04:47:17;3.90;;;3.63;;
69906;SDS011;57190;47.918;8.112;2023-02-28T04:49:43;3.87;;;3.57;;
69906;SDS011;57190;47.918;8.112;2023-02-28T04:52:08;3.80;;;3.50;;
69906;SDS011;57190;47.918;8.112;2023-02-28T04:54:35;3.87;;;3.57;;
69906;SDS011;57190;47.918;8.112;2023-02-28T04:57:00;3.70;;;3.40;;
69906;SDS011;57190;47.918;8.112;2023-02-28T04:59:26;4.20;;;3.90;;
69906;SDS011;57190;47.918;8.112;2023-02-28T05:01:52;3.70;;;3.30;;
69906;SDS011;57190;47.918;8.112;2023-02-28T05:04:17;3.40;;;3.20;;
69906;SDS011;57190;47.918;8.112;2023-02-28T05:06:43;3.77;;;3.47;;
69906;SDS011;57190;47.918;8.112;2023-02-28T05:09:08;3.43;;;3.13;;
69906;SDS011;57190;47.918;8.112;2023-02-28T05:11:36;3.50;;;3.20;;
69906;SDS011;57190;47.918;8.112;2023-02-28T05:14:04;3.93;;;3.63;;
69906;SDS011;57190;47.918;8.112;2023-02-28T05:16:31;3.70;;;3.40;;
69906;SDS011;57190;47.918;8.112;2023-02-28T05:18:57;3.93;;;3.63;;
69906;SDS011;57190;47.918;8.112;2023-02-28T05:23:51;4.10;;;3.70;;
69906;SDS011;57190;47.918;8.112;2023-02-28T05:26:17;3.60;;;3.30;;
69906;SDS011;57190;47.918;8.112;2023-02-28T05:28:43;3.43;;;3.13;;
69906;SDS011;57190;47.918;8.112;2023-02-28T05:31:12;3.97;;;3.53;;
69906;SDS011;57190;47.918;8.112;2023-02-28T05:33:38;3.53;;;3.33;;
69906;SDS011;57190;47.918;8.112;2023-02-28T05:36:04;3.87;;;3.57;;
69906;SDS011;57190;47.918;8.112;2023-02-28T05:38:30;3.80;;;3.50;;
69906;SDS011;57190;47.918;8.112;2023-02-28T05:40:56;3.73;;;3.33;;
69906;SDS011;57190;47.918;8.112;2023-02-28T05:43:21;3.87;;;3.57;;
69906;SDS011;57190;47.918;8.112;2023-02-28T05:45:47;4.03;;;3.40;;
69906;SDS011;57190;47.918;8.112;2023-02-28T05:48:13;3.83;;;3.53;;
69906;SDS011;57190;47.918;8.112;2023-02-28T05:50:39;4.10;;;3.73;;
69906;SDS011;57190;47.918;8.112;2023-02-28T05:53:04;3.50;;;3.30;;
69906;SDS011;57190;47.918;8.112;2023-02-28T05:55:30;3.73;;;3.43;;
69906;SDS011;57190;47.918;8.112;2023-02-28T05:57:55;4.17;;;3.87;;
69906;SDS011;57190;47.918;8.112;2023-02-28T06:00:21;3.93;;;3.63;;
69906;SDS011;57190;47.918;8.112;2023-02-28T06:02:47;4.20;;;3.90;;
69906;SDS011;57190;47.918;8.112;2023-02-28T06:05:16;4.13;;;3.83;;
69906;SDS011;57190;47.918;8.112;2023-02-28T06:07:43;4.23;;;3.93;;
69906;SDS011;57190;47.918;8.112;2023-02-28T06:10:12;3.93;;;3.63;;
69906;SDS011;57190;47.918;8.112;2023-02-28T06:12:38;4.10;;;3.80;;
69906;SDS011;57190;47.918;8.112;2023-02-28T06:15:04;4.10;;;3.70;;
69906;SDS011;57190;47.918;8.112;2023-02-28T06:17:30;4.43;;;4.00;;
69906;SDS011;57190;47.918;8.112;2023-02-28T06:19:55;4.27;;;3.87;;
69906;SDS011;57190;47.918;8.112;2023-02-28T06:22:21;4.43;;;4.03;;
69906;SDS011;57190;47.918;8.112;2023-02-28T06:24:46;4.20;;;3.90;;
69906;SDS011;57190;47.918;8.112;2023-02-28T06:27:12;4.50;;;4.20;;
69906;SDS011;57190;47.918;8.112;2023-02-28T06:29:38;4.70;;;4.30;;
69906;SDS011;57190;47.918;8.112;2023-02-28T06:32:06;4.50;;;4.20;;
69906;SDS011;57190;47.918;8.112;2023-02-28T06:34:31;4.30;;;3.97;;
69906;SDS011;57190;47.918;8.112;2023-02-28T06:36:58;4.47;;;4.17;;
69906;SDS011;57190;47.918;8.112;2023-02-28T06:39:27;4.53;;;4.23;;
69906;SDS011;57190;47.918;8.112;2023-02-28T06:41:55;5.27;;;4.83;;
69906;SDS011;57190;47.918;8.112;2023-02-28T06:44:21;5.13;;;4.63;;
69906;SDS011;57190;47.918;8.112;2023-02-28T06:46:48;5.03;;;4.63;;
69906;SDS011;57190;47.918;8.112;2023-02-28T06:49:14;4.87;;;4.47;;
69906;SDS011;57190;47.918;8.112;2023-02-28T06:51:40;5.17;;;4.77;;
69906;SDS011;57190;47.918;8.112;2023-02-28T06:54:08;5.40;;;4.93;;
69906;SDS011;57190;47.918;8.112;2023-02-28T06:56:34;5.43;;;4.90;;
69906;SDS011;57190;47.918;8.112;2023-02-28T06:59:00;5.37;;;4.97;;
69906;SDS011;57190;47.918;8.112;2023-02-28T07:01:26;5.53;;;5.03;;
69906;SDS011;57190;47.918;8.112;2023-02-28T07:03:52;4.83;;;4.43;;
69906;SDS011;57190;47.918;8.112;2023-02-28T07:06:19;5.90;;;5.40;;
69906;SDS011;57190;47.918;8.112;2023-02-28T07:08:47;5.47;;;4.97;;
69906;SDS011;57190;47.918;8.112;2023-02-28T07:11:13;5.53;;;4.93;;
69906;SDS011;57190;47.918;8.112;2023-02-28T07:13:40;5.30;;;4.90;;
69906;SDS011;57190;47.918;8.112;2023-02-28T07:16:06;5.27;;;4.87;;
69906;SDS011;57190;47.918;8.112;2023-02-28T07:18:34;6.00;;;5.40;;
69906;SDS011;57190;47.918;8.112;2023-02-28T07:21:04;5.70;;;5.20;;
69906;SDS011;57190;47.918;8.112;2023-02-28T07:23:32;6.73;;;6.13;;
69906;SDS011;57190;47.918;8.112;2023-02-28T07:25:58;5.67;;;5.17;;
69906;SDS011;57190;47.918;8.112;2023-02-28T07:28:23;6.30;;;5.70;;
69906;SDS011;57190;47.918;8.112;2023-02-28T07:30:49;5.40;;;5.00;;
69906;SDS011;57190;47.918;8.112;2023-02-28T07:33:15;5.70;;;5.20;;
69906;SDS011;57190;47.918;8.112;2023-02-28T07:35:41;5.63;;;5.13;;
69906;SDS011;57190;47.918;8.112;2023-02-28T07:38:06;5.60;;;5.17;;
69906;SDS011;57190;47.918;8.112;2023-02-28T07:40:33;5.97;;;5.47;;
69906;SDS011;57190;47.918;8.112;2023-02-28T07:42:59;5.70;;;5.20;;
69906;SDS011;57190;47.918;8.112;2023-02-28T07:45:26;5.70;;;5.20;;
69906;SDS011;57190;47.918;8.112;2023-02-28T07:47:51;6.23;;;5.63;;
69906;SDS011;57190;47.918;8.112;2023-02-28T07:50:17;7.37;;;6.70;;
69906;SDS011;57190;47.918;8.112;2023-02-28T07:52:42;6.30;;;5.77;;
69906;SDS011;57190;47.918;8.112;2023-02-28T07:55:08;5.90;;;5.50;;
69906;SDS011;57190;47.918;8.112;2023-02-28T07:57:35;5.97;;;5.50;;
69906;SDS011;57190;47.918;8.112;2023-02-28T08:00:02;6.20;;;5.70;;
69906;SDS011;57190;47.918;8.112;2023-02-28T08:02:29;6.13;;;5.53;;
69906;SDS011;57190;47.918;8.112;2023-02-28T08:04:54;6.40;;;5.60;;
69906;SDS011;57190;47.918;8.112;2023-02-28T08:07:20;6.33;;;5.63;;
69906;SDS011;57190;47.918;8.112;2023-02-28T08:09:46;6.10;;;5.50;;
69906;SDS011;57190;47.918;8.112;2023-02-28T08:12:11;6.03;;;5.53;;
69906;SDS011;57190;47.918;8.112;2023-02-28T08:14:37;6.53;;;5.83;;
69906;SDS011;57190;47.918;8.112;2023-02-28T08:17:04;5.83;;;5.43;;
69906;SDS011;57190;47.918;8.112;2023-02-28T08:19:30;6.20;;;5.23;;
69906;SDS011;57190;47.918;8.112;2023-02-28T08:21:56;6.50;;;5.90;;
69906;SDS011;57190;47.918;8.112;2023-02-28T08:24:22;6.47;;;5.97;;
69906;SDS011;57190;47.918;8.112;2023-02-28T08:26:48;5.90;;;5.40;;
69906;SDS011;57190;47.918;8.112;2023-02-28T08:29:13;6.07;;;5.57;;
69906;SDS011;57190;47.918;8.112;2023-02-28T08:31:39;5.40;;;5.00;;
69906;SDS011;57190;47.918;8.112;2023-02-28T08:34:06;6.27;;;5.77;;
69906;SDS011;57190;47.918;8.112;2023-02-28T08:36:32;5.77;;;5.27;;
69906;SDS011;57190;47.918;8.112;2023-02-28T08:38:57;6.43;;;5.70;;
69906;SDS011;57190;47.918;8.112;2023-02-28T08:41:24;5.70;;;5.03;;
69906;SDS011;57190;47.918;8.112;2023-02-28T08:43:51;5.60;;;5.20;;
69906;SDS011;57190;47.918;8.112;2023-02-28T08:46:16;7.03;;;5.80;;
69906;SDS011;57190;47.918;8.112;2023-02-28T08:48:42;5.83;;;5.33;;
69906;SDS011;57190;47.918;8.112;2023-02-28T08:51:13;6.33;;;5.83;;
69906;SDS011;57190;47.918;8.112;2023-02-28T08:53:43;5.80;;;5.40;;
69906;SDS011;57190;47.918;8.112;2023-02-28T08:56:10;6.17;;;5.67;;
69906;SDS011;57190;47.918;8.112;2023-02-28T08:58:38;6.03;;;5.53;;
69906;SDS011;57190;47.918;8.112;2023-02-28T09:01:08;5.43;;;4.93;;
69906;SDS011;57190;47.918;8.112;2023-02-28T09:03:35;6.40;;;5.70;;
69906;SDS011;57190;47.918;8.112;2023-02-28T09:06:01;5.87;;;5.43;;
69906;SDS011;57190;47.918;8.112;2023-02-28T09:08:28;5.57;;;5.10;;
69906;SDS011;57190;47.918;8.112;2023-02-28T09:10:55;5.50;;;5.10;;
69906;SDS011;57190;47.918;8.112;2023-02-28T09:13:23;5.97;;;5.43;;
69906;SDS011;57190;47.918;8.112;2023-02-28T09:15:50;6.87;;;6.00;;
69906;SDS011;57190;47.918;8.112;2023-02-28T09:18:15;6.07;;;5.57;;
69906;SDS011;57190;47.918;8.112;2023-02-28T09:20:42;6.40;;;5.87;;
69906;SDS011;57190;47.918;8.112;2023-02-28T09:23:08;6.27;;;5.77;;
69906;SDS011;57190;47.918;8.112;2023-02-28T09:25:35;6.20;;;5.70;;
69906;SDS011;57190;47.918;8.112;2023-02-28T09:28:01;6.10;;;5.60;;
69906;SDS011;57190;47.918;8.112;2023-02-28T09:30:27;6.57;;;6.07;;
69906;SDS011;57190;47.918;8.112;2023-02-28T09:32:52;6.50;;;6.00;;
69906;SDS011;57190;47.918;8.112;2023-02-28T09:35:19;6.00;;;5.50;;
69906;SDS011;57190;47.918;8.112;2023-02-28T09:37:49;6.30;;;5.80;;
69906;SDS011;57190;47.918;8.112;2023-02-28T09:40:17;5.73;;;5.23;;
69906;SDS011;57190;47.918;8.112;2023-02-28T09:42:47;6.63;;;6.03;;
69906;SDS011;57190;47.918;8.112;2023-02-28T09:45:28;5.83;;;5.33;;
69906;SDS011;57190;47.918;8.112;2023-02-28T09:48:12;5.97;;;5.43;;
69906;SDS011;57190;47.918;8.112;2023-02-28T09:50:50;6.07;;;5.67;;
69906;SDS011;57190;47.918;8.112;2023-02-28T09:53:27;5.83;;;5.40;;
69906;SDS011;57190;47.918;8.112;2023-02-28T09:56:09;6.10;;;5.60;;
69906;SDS011;57190;47.918;8.112;2023-02-28T09:58:42;6.30;;;5.80;;
69906;SDS011;57190;47.918;8.112;2023-02-28T10:03:57;5.70;;;5.30;;
69906;SDS011;57190;47.918;8.112;2023-02-28T10:06:29;6.03;;;5.53;;
69906;SDS011;57190;47.918;8.112;2023-02-28T10:09:04;6.17;;;5.67;;
69906;SDS011;57190;47.918;8.112;2023-02-28T10:11:38;5.70;;;5.30;;
69906;SDS011;57190;47.918;8.112;2023-02-28T10:14:16;5.93;;;5.43;;
69906;SDS011;57190;47.918;8.112;2023-02-28T10:16:46;6.13;;;5.63;;
69906;SDS011;57190;47.918;8.112;2023-02-28T10:19:20;5.80;;;5.33;;
69906;SDS011;57190;47.918;8.112;2023-02-28T10:22:25;7.00;;;6.40;;
69906;SDS011;57190;47.918;8.112;2023-02-28T10:24:50;6.10;;;5.57;;
69906;SDS011;57190;47.918;8.112;2023-02-28T10:27:23;6.13;;;5.63;;
69906;SDS011;57190;47.918;8.112;2023-02-28T10:32:22;6.80;;;6.20;;
69906;SDS011;57190;47.918;8.112;2023-02-28T10:34:59;6.90;;;6.20;;
69906;SDS011;57190;47.918;8.112;2023-02-28T10:37:42;6.53;;;6.03;;
69906;SDS011;57190;47.918;8.112;2023-02-28T10:43:21;6.97;;;6.27;;
69906;SDS011;57190;47.918;8.112;2023-02-28T10:45:39;6.63;;;6.03;;
69906;SDS011;57190;47.918;8.112;2023-02-28T10:48:30;6.40;;;5.90;;
69906;SDS011;57190;47.918;8.112;2023-02-28T10:50:59;6.67;;;6.10;;
69906;SDS011;57190;47.918;8.112;2023-02-28T11:01:26;7.33;;;6.13;;
69906;SDS011;57190;47.918;8.112;2023-02-28T11:03:59;6.60;;;6.00;;
69906;SDS011;57190;47.918;8.112;2023-02-28T11:06:32;6.93;;;6.43;;
69906;SDS011;57190;47.918;8.112;2023-02-28T11:09:00;6.83;;;6.33;;
69906;SDS011;57190;47.918;8.112;2023-02-28T11:11:29;7.27;;;6.77;;
69906;SDS011;57190;47.918;8.112;2023-02-28T11:14:06;7.03;;;6.53;;
69906;SDS011;57190;47.918;8.112;2023-02-28T11:16:51;7.20;;;6.60;;
69906;SDS011;57190;47.918;8.112;2023-02-28T11:19:19;6.70;;;6.20;;
69906;SDS011;57190;47.918;8.112;2023-02-28T11:21:56;7.13;;;6.63;;
69906;SDS011;57190;47.918;8.112;2023-02-28T11:24:28;6.67;;;6.07;;
69906;SDS011;57190;47.918;8.112;2023-02-28T11:26:56;7.50;;;6.90;;
69906;SDS011;57190;47.918;8.112;2023-02-28T11:29:32;7.10;;;6.50;;
69906;SDS011;57190;47.918;8.112;2023-02-28T11:32:13;7.23;;;6.67;;
69906;SDS011;57190;47.918;8.112;2023-02-28T11:34:43;7.53;;;6.93;;
69906;SDS011;57190;47.918;8.112;2023-02-28T11:37:19;7.00;;;6.50;;
69906;SDS011;57190;47.918;8.112;2023-02-28T11:39:45;7.30;;;6.70;;
69906;SDS011;57190;47.918;8.112;2023-02-28T11:47:32;7.13;;;6.53;;
69906;SDS011;57190;47.918;8.112;2023-02-28T11:53:00;6.90;;;6.37;;
69906;SDS011;57190;47.918;8.112;2023-02-28T11:55:37;7.07;;;6.50;;
69906;SDS011;57190;47.918;8.112;2023-02-28T11:58:17;7.10;;;6.50;;
69906;SDS011;57190;47.918;8.112;2023-02-28T12:07:14;7.03;;;6.53;;
69906;SDS011;57190;47.918;8.112;2023-02-28T12:09:46;7.23;;;6.73;;
69906;SDS011;57190;47.918;8.112;2023-02-28T12:12:38;7.60;;;7.00;;
69906;SDS011;57190;47.918;8.112;2023-02-28T12:26:28;7.93;;;7.33;;
69906;SDS011;57190;47.918;8.112;2023-02-28T12:28:58;8.00;;;7.30;;
69906;SDS011;57190;47.918;8.112;2023-02-28T12:32:10;7.63;;;6.80;;
69906;SDS011;57190;47.918;8.112;2023-02-28T12:34:50;7.57;;;6.97;;
69906;SDS011;57190;47.918;8.112;2023-02-28T12:40:53;7.57;;;6.97;;
69906;SDS011;57190;47.918;8.112;2023-02-28T12:43:25;7.93;;;7.33;;
69906;SDS011;57190;47.918;8.112;2023-02-28T12:45:59;8.47;;;7.17;;
69906;SDS011;57190;47.918;8.112;2023-02-28T12:48:55;6.87;;;6.30;;
69906;SDS011;57190;47.918;8.112;2023-02-28T12:51:21;7.70;;;7.10;;
69906;SDS011;57190;47.918;8.112;2023-02-28T12:54:01;7.37;;;6.80;;
69906;SDS011;57190;47.918;8.112;2023-02-28T12:59:53;7.93;;;7.33;;
69906;SDS011;57190;47.918;8.112;2023-02-28T13:02:09;8.10;;;7.40;;
69906;SDS011;57190;47.918;8.112;2023-02-28T13:04:50;8.20;;;7.50;;
69906;SDS011;57190;47.918;8.112;2023-02-28T13:10:16;7.33;;;6.77;;
69906;SDS011;57190;47.918;8.112;2023-02-28T13:12:50;7.97;;;7.37;;
69906;SDS011;57190;47.918;8.112;2023-02-28T13:15:21;7.70;;;7.10;;
69906;SDS011;57190;47.918;8.112;2023-02-28T13:17:53;8.53;;;7.80;;
69906;SDS011;57190;47.918;8.112;2023-02-28T13:20:28;7.90;;;7.30;;
69906;SDS011;57190;47.918;8.112;2023-02-28T13:22:58;7.70;;;7.10;;
69906;SDS011;57190;47.918;8.112;2023-02-28T13:28:10;7.90;;;7.30;;
69906;SDS011;57190;47.918;8.112;2023-02-28T13:38:49;8.50;;;7.80;;
69906;SDS011;57190;47.918;8.112;2023-02-28T13:52:15;8.27;;;7.67;;
69906;SDS011;57190;47.918;8.112;2023-02-28T14:03:17;7.97;;;7.10;;
69906;SDS011;57190;47.918;8.112;2023-02-28T14:06:18;8.33;;;7.53;;
69906;SDS011;57190;47.918;8.112;2023-02-28T14:11:25;8.47;;;7.77;;
69906;SDS011;57190;47.918;8.112;2023-02-28T14:13:54;8.03;;;7.30;;
69906;SDS011;57190;47.918;8.112;2023-02-28T14:16:23;7.87;;;7.27;;
69906;SDS011;57190;47.918;8.112;2023-02-28T14:18:55;8.50;;;7.83;;
69906;SDS011;57190;47.918;8.112;2023-02-28T14:21:34;8.20;;;7.53;;
69906;SDS011;57190;47.918;8.112;2023-02-28T14:24:03;8.20;;;7.50;;
69906;SDS011;57190;47.918;8.112;2023-02-28T14:26:58;8.67;;;7.97;;
69906;SDS011;57190;47.918;8.112;2023-02-28T14:29:47;8.17;;;7.57;;
69906;SDS011;57190;47.918;8.112;2023-02-28T14:38:05;8.70;;;8.00;;
69906;SDS011;57190;47.918;8.112;2023-02-28T14:40:38;8.90;;;8.20;;
69906;SDS011;57190;47.918;8.112;2023-02-28T14:43:06;8.90;;;8.10;;
69906;SDS011;57190;47.918;8.112;2023-02-28T14:45:47;8.83;;;8.13;;
69906;SDS011;57190;47.918;8.112;2023-02-28T14:48:16;9.33;;;8.63;;
69906;SDS011;57190;47.918;8.112;2023-02-28T14:50:47;8.63;;;7.93;;
69906;SDS011;57190;47.918;8.112;2023-02-28T14:53:19;8.97;;;8.17;;
69906;SDS011;57190;47.918;8.112;2023-02-28T14:55:47;9.70;;;8.80;;
69906;SDS011;57190;47.918;8.112;2023-02-28T14:58:25;8.73;;;8.03;;
69906;SDS011;57190;47.918;8.112;2023-02-28T15:00:52;9.50;;;8.73;;
69906;SDS011;57190;47.918;8.112;2023-02-28T15:03:21;8.73;;;8.00;;
69906;SDS011;57190;47.918;8.112;2023-02-28T15:05:51;8.93;;;8.23;;
69906;SDS011;57190;47.918;8.112;2023-02-28T15:08:21;9.27;;;8.37;;
69906;SDS011;57190;47.918;8.112;2023-02-28T15:10:51;8.80;;;8.03;;
69906;SDS011;57190;47.918;8.112;2023-02-28T15:13:17;9.70;;;8.90;;
69906;SDS011;57190;47.918;8.112;2023-02-28T15:15:55;8.80;;;8.10;;
69906;SDS011;57190;47.918;8.112;2023-02-28T15:21:18;8.67;;;7.87;;
69906;SDS011;57190;47.918;8.112;2023-02-28T15:23:48;8.63;;;7.93;;
69906;SDS011;57190;47.918;8.112;2023-02-28T15:26:22;9.03;;;8.33;;
69906;SDS011;57190;47.918;8.112;2023-02-28T15:28:54;9.90;;;9.10;;
69906;SDS011;57190;47.918;8.112;2023-02-28T15:31:31;9.60;;;8.53;;
69906;SDS011;57190;47.918;8.112;2023-02-28T15:34:02;9.53;;;8.83;;
69906;SDS011;57190;47.918;8.112;2023-02-28T15:36:30;9.27;;;8.57;;
69906;SDS011;57190;47.918;8.112;2023-02-28T15:38:58;9.90;;;9.10;;
69906;SDS011;57190;47.918;8.112;2023-02-28T15:41:29;9.87;;;8.93;;
69906;SDS011;57190;47.918;8.112;2023-02-28T15:49:23;10.20;;;9.40;;
69906;SDS011;57190;47.918;8.112;2023-02-28T15:51:49;10.57;;;9.73;;
69906;SDS011;57190;47.918;8.112;2023-02-28T15:54:22;9.73;;;8.87;;
69906;SDS011;57190;47.918;8.112;2023-02-28T15:56:52;8.93;;;8.23;;
69906;SDS011;57190;47.918;8.112;2023-02-28T15:59:25;9.27;;;8.57;;
69906;SDS011;57190;47.918;8.112;2023-02-28T16:04:34;9.70;;;8.90;;
69906;SDS011;57190;47.918;8.112;2023-02-28T16:07:04;9.83;;;8.93;;
69906;SDS011;57190;47.918;8.112;2023-02-28T16:09:31;9.60;;;8.80;;
69906;SDS011;57190;47.918;8.112;2023-02-28T16:11:59;9.17;;;8.47;;
69906;SDS011;57190;47.918;8.112;2023-02-28T16:14:27;9.50;;;8.80;;
69906;SDS011;57190;47.918;8.112;2023-02-28T16:17:03;9.60;;;8.80;;
69906;SDS011;57190;47.918;8.112;2023-02-28T16:19:31;9.10;;;8.33;;
69906;SDS011;57190;47.918;8.112;2023-02-28T16:21:57;8.80;;;8.10;;
69906;SDS011;57190;47.918;8.112;2023-02-28T16:24:23;9.03;;;8.23;;
69906;SDS011;57190;47.918;8.112;2023-02-28T16:26:49;9.00;;;8.20;;
69906;SDS011;57190;47.918;8.112;2023-02-28T16:29:23;8.97;;;8.17;;
69906;SDS011;57190;47.918;8.112;2023-02-28T16:31:51;8.93;;;8.13;;
69906;SDS011;57190;47.918;8.112;2023-02-28T16:34:18;9.87;;;9.07;;
69906;SDS011;57190;47.918;8.112;2023-02-28T16:36:46;9.30;;;8.40;;
69906;SDS011;57190;47.918;8.112;2023-02-28T16:39:12;9.17;;;8.37;;
69906;SDS011;57190;47.918;8.112;2023-02-28T16:41:37;9.17;;;8.37;;
69906;SDS011;57190;47.918;8.112;2023-02-28T16:44:08;8.73;;;8.10;;
69906;SDS011;57190;47.918;8.112;2023-02-28T16:46:38;8.87;;;7.70;;
69906;SDS011;57190;47.918;8.112;2023-02-28T16:49:11;9.77;;;8.90;;
69906;SDS011;57190;47.918;8.112;2023-02-28T16:51:37;9.23;;;8.50;;
69906;SDS011;57190;47.918;8.112;2023-02-28T16:54:03;8.53;;;7.83;;
69906;SDS011;57190;47.918;8.112;2023-02-28T16:56:28;9.20;;;8.40;;
69906;SDS011;57190;47.918;8.112;2023-02-28T16:58:55;9.47;;;8.70;;
69906;SDS011;57190;47.918;8.112;2023-02-28T17:01:27;9.90;;;8.90;;
69906;SDS011;57190;47.918;8.112;2023-02-28T17:03:54;9.10;;;8.40;;
69906;SDS011;57190;47.918;8.112;2023-02-28T17:06:20;9.07;;;8.37;;
69906;SDS011;57190;47.918;8.112;2023-02-28T17:08:49;9.63;;;8.73;;
69906;SDS011;57190;47.918;8.112;2023-02-28T17:11:15;9.00;;;8.10;;
69906;SDS011;57190;47.918;8.112;2023-02-28T17:13:42;9.20;;;8.40;;
69906;SDS011;57190;47.918;8.112;2023-02-28T17:16:19;9.37;;;8.53;;
69906;SDS011;57190;47.918;8.112;2023-02-28T17:18:49;9.03;;;8.23;;
69906;SDS011;57190;47.918;8.112;2023-02-28T17:21:16;9.87;;;9.07;;
69906;SDS011;57190;47.918;8.112;2023-02-28T17:23:42;9.00;;;8.20;;
69906;SDS011;57190;47.918;8.112;2023-02-28T17:26:12;8.93;;;8.23;;
69906;SDS011;57190;47.918;8.112;2023-02-28T17:28:39;9.13;;;8.23;;
69906;SDS011;57190;47.918;8.112;2023-02-28T17:31:05;8.90;;;8.20;;
69906;SDS011;57190;47.918;8.112;2023-02-28T17:33:31;9.17;;;8.40;;
69906;SDS011;57190;47.918;8.112;2023-02-28T17:35:56;9.30;;;8.47;;